createdAt,value
2023-01-08T00:01:08.676Z,117.43
2023-01-08T00:03:48.278Z,110.32
2023-01-08T00:06:18.228Z,101.57
2023-01-08T00:08:46.846Z,100.75
2023-01-08T00:11:16.508Z,81.15
2023-01-08T00:13:44.834Z,87.63
2023-01-08T00:16:14.870Z,72.40
2023-01-08T00:18:43.836Z,70.90
2023-01-08T00:21:12.388Z,84.82
2023-01-08T00:23:40.979Z,87.65
2023-01-08T00:26:10.942Z,84.57
2023-01-08T00:28:40.953Z,82.28
2023-01-08T00:31:11.003Z,87.50
2023-01-08T00:33:39.933Z,73.40
2023-01-08T00:36:08.999Z,84.63
2023-01-08T00:38:37.861Z,75.10
2023-01-08T00:41:06.438Z,72.25
2023-01-08T00:43:34.815Z,78.45
2023-01-08T00:46:04.219Z,76.22
2023-01-08T00:48:33.450Z,73.85
2023-01-08T00:51:03.099Z,73.20
2023-01-08T00:53:31.232Z,70.45
2023-01-08T00:56:03.122Z,70.45
2023-01-08T00:58:31.665Z,65.70
2023-01-08T01:00:59.560Z,67.43
2023-01-08T01:03:29.062Z,63.78
2023-01-08T01:06:03.035Z,67.88
2023-01-08T01:08:31.055Z,72.25
2023-01-08T01:10:58.906Z,70.10
2023-01-08T01:13:26.979Z,72.30
2023-01-08T01:15:58.828Z,63.92
2023-01-08T01:18:27.529Z,61.10
2023-01-08T01:20:56.579Z,61.42
2023-01-08T01:23:24.478Z,57.55
2023-01-08T01:25:52.228Z,54.92
2023-01-08T01:28:20.415Z,54.47
2023-01-08T01:30:54.638Z,54.92
2023-01-08T01:33:22.643Z,55.47
2023-01-08T01:35:50.313Z,56.95
2023-01-08T01:38:19.613Z,70.82
2023-01-08T01:40:47.383Z,68.45
2023-01-08T01:43:15.414Z,66.53
2023-01-08T01:45:44.106Z,64.80
2023-01-08T01:48:14.524Z,66.43
2023-01-08T01:50:47.317Z,66.18
2023-01-08T01:53:23.085Z,65.60
2023-01-08T01:55:51.651Z,71.38
2023-01-08T01:58:23.601Z,76.97
2023-01-08T02:03:47.274Z,60.83
2023-01-08T02:06:25.141Z,67.60
2023-01-08T02:09:02.145Z,73.32
2023-01-08T02:11:41.718Z,72.85
2023-01-08T02:14:17.274Z,89.22
2023-01-08T02:16:51.355Z,68.60
2023-01-08T02:19:35.535Z,75.40
2023-01-08T02:22:12.563Z,66.00
2023-01-08T02:24:51.966Z,69.82
2023-01-08T02:27:25.733Z,76.25
2023-01-08T02:29:55.055Z,70.38
2023-01-08T02:32:26.867Z,74.45
2023-01-08T02:34:55.066Z,79.47
2023-01-08T02:37:23.140Z,69.75
2023-01-08T02:40:04.885Z,72.93
2023-01-08T02:42:44.289Z,67.72
2023-01-08T02:45:22.922Z,71.32
2023-01-08T02:47:56.470Z,70.60
2023-01-08T02:50:30.459Z,76.75
2023-01-08T02:53:04.314Z,71.82
2023-01-08T02:55:34.516Z,77.50
2023-01-08T02:58:05.911Z,73.93
2023-01-08T03:00:34.692Z,79.30
2023-01-08T03:03:08.828Z,80.47
2023-01-08T03:05:39.402Z,82.43
2023-01-08T03:08:07.961Z,68.85
2023-01-08T03:10:39.436Z,65.35
2023-01-08T03:13:13.295Z,75.68
2023-01-08T03:15:50.854Z,64.57
2023-01-08T03:18:22.796Z,61.35
2023-01-08T03:20:51.928Z,53.42
2023-01-08T03:23:23.103Z,52.53
2023-01-08T03:25:50.825Z,53.00
2023-01-08T03:28:24.718Z,65.05
2023-01-08T03:30:54.779Z,79.97
2023-01-08T03:33:25.309Z,79.03
2023-01-08T03:35:56.023Z,71.82
2023-01-08T03:38:28.408Z,69.82
2023-01-08T03:40:59.024Z,66.53
2023-01-08T03:43:29.258Z,86.60
2023-01-08T03:46:00.060Z,70.78
2023-01-08T03:48:31.452Z,74.85
2023-01-08T03:50:59.147Z,76.70
2023-01-08T03:53:27.176Z,78.57
2023-01-08T03:55:55.543Z,76.68
2023-01-08T03:58:23.553Z,84.20
2023-01-08T04:00:52.616Z,76.20
2023-01-08T04:03:20.869Z,70.85
2023-01-08T04:05:48.592Z,73.20
2023-01-08T04:08:16.744Z,79.22
2023-01-08T04:10:44.527Z,92.68
2023-01-08T04:13:12.548Z,93.85
2023-01-08T04:15:40.351Z,113.88
2023-01-08T04:18:09.781Z,109.03
2023-01-08T04:20:37.479Z,118.82
2023-01-08T04:23:05.455Z,117.22
2023-01-08T04:25:33.206Z,138.45
2023-01-08T04:28:01.177Z,125.57
2023-01-08T04:30:28.875Z,118.97
2023-01-08T04:32:57.522Z,109.80
2023-01-08T04:35:26.737Z,97.65
2023-01-08T04:37:54.718Z,100.38
2023-01-08T04:40:22.559Z,95.28
2023-01-08T04:42:50.556Z,86.55
2023-01-08T04:45:18.996Z,121.53
2023-01-08T04:47:47.093Z,102.55
2023-01-08T04:50:15.038Z,68.72
2023-01-08T04:52:44.323Z,67.78
2023-01-08T04:55:12.047Z,64.88
2023-01-08T04:57:40.227Z,75.10
2023-01-08T05:00:08.959Z,75.90
2023-01-08T05:02:37.175Z,85.15
2023-01-08T05:05:06.230Z,74.38
2023-01-08T05:07:34.257Z,78.90
2023-01-08T05:10:03.407Z,73.55
2023-01-08T05:12:31.449Z,78.38
2023-01-08T05:14:59.174Z,73.63
2023-01-08T05:17:27.185Z,98.50
2023-01-08T05:19:55.084Z,92.15
2023-01-08T05:22:23.110Z,79.90
2023-01-08T05:24:50.784Z,98.07
2023-01-08T05:27:20.345Z,93.55
2023-01-08T05:29:48.060Z,116.05
2023-01-08T05:32:17.873Z,101.28
2023-01-08T05:34:46.606Z,385.27
2023-01-08T05:37:14.647Z,399.50
2023-01-08T05:39:42.426Z,267.38
2023-01-08T05:42:10.545Z,332.98
2023-01-08T05:44:39.606Z,164.70
2023-01-08T05:47:07.577Z,502.95
2023-01-08T05:49:35.334Z,154.55
2023-01-08T05:52:03.362Z,111.45
2023-01-08T05:54:31.065Z,114.00
2023-01-08T05:56:59.231Z,130.40
2023-01-08T05:59:27.003Z,88.85
2023-01-08T06:01:56.300Z,124.05
2023-01-08T06:04:24.129Z,104.97
2023-01-08T06:06:52.327Z,88.05
2023-01-08T06:09:20.147Z,84.63
2023-01-08T06:11:48.329Z,97.95
2023-01-08T06:14:16.132Z,77.65
2023-01-08T06:16:44.360Z,61.15
2023-01-08T06:19:13.606Z,86.45
2023-01-08T06:21:41.599Z,51.67
2023-01-08T06:24:09.563Z,50.17
2023-01-08T06:26:37.612Z,46.33
2023-01-08T06:29:05.463Z,70.18
2023-01-08T06:31:33.627Z,61.92
2023-01-08T06:34:01.350Z,54.65
2023-01-08T06:36:30.828Z,55.67
2023-01-08T06:38:58.615Z,48.63
2023-01-08T06:41:26.721Z,48.17
2023-01-08T06:43:54.550Z,53.67
2023-01-08T06:46:22.513Z,49.53
2023-01-08T06:48:50.268Z,111.25
2023-01-08T06:51:18.519Z,82.82
2023-01-08T06:53:49.856Z,102.78
2023-01-08T06:56:17.841Z,82.28
2023-01-08T06:58:45.684Z,69.85
2023-01-08T07:01:16.471Z,102.75
2023-01-08T07:03:45.259Z,74.25
2023-01-08T07:06:16.885Z,86.03
2023-01-08T07:08:44.701Z,76.80
2023-01-08T07:11:14.766Z,75.25
2023-01-08T07:13:42.696Z,116.35
2023-01-08T07:16:13.047Z,85.82
2023-01-08T07:18:42.121Z,92.47
2023-01-08T07:21:10.451Z,106.72
2023-01-08T07:23:38.385Z,103.43
2023-01-08T07:26:07.800Z,72.20
2023-01-08T07:28:36.872Z,65.55
2023-01-08T07:31:05.799Z,66.80
2023-01-08T07:33:33.646Z,74.68
2023-01-08T07:36:01.972Z,73.18
2023-01-08T07:38:29.827Z,93.80
2023-01-08T07:40:58.927Z,78.78
2023-01-08T07:43:29.886Z,91.38
2023-01-08T07:45:59.411Z,84.05
2023-01-08T07:48:27.145Z,75.75
2023-01-08T07:50:55.089Z,87.10
2023-01-08T07:53:22.908Z,74.47
2023-01-08T07:55:50.837Z,72.97
2023-01-08T07:58:18.647Z,72.65
2023-01-08T08:00:46.803Z,67.63
2023-01-08T08:03:16.318Z,51.50
2023-01-08T08:05:44.394Z,85.07
2023-01-08T08:08:13.474Z,40.78
2023-01-08T08:10:43.189Z,40.33
2023-01-08T08:13:11.546Z,110.97
2023-01-08T08:15:40.971Z,82.43
2023-01-08T08:18:09.578Z,146.88
2023-01-08T08:20:39.302Z,198.82
2023-01-08T08:23:09.763Z,112.07
2023-01-08T08:25:38.068Z,77.45
2023-01-08T08:28:06.385Z,74.43
2023-01-08T08:30:36.477Z,54.40
2023-01-08T08:33:06.131Z,61.47
2023-01-08T08:35:35.582Z,65.68
2023-01-08T08:38:05.385Z,65.55
2023-01-08T08:40:33.705Z,52.88
2023-01-08T08:43:03.348Z,60.97
2023-01-08T08:45:31.792Z,113.28
2023-01-08T08:47:59.529Z,106.45
2023-01-08T08:50:27.516Z,102.90
2023-01-08T08:53:00.100Z,101.88
2023-01-08T08:55:29.792Z,110.50
2023-01-08T08:58:04.154Z,107.95
2023-01-08T09:00:32.246Z,120.80
2023-01-08T09:03:00.274Z,116.75
2023-01-08T09:05:28.709Z,99.28
2023-01-08T09:07:56.510Z,97.85
2023-01-08T09:10:24.919Z,96.82
2023-01-08T09:12:54.637Z,108.10
2023-01-08T09:15:22.638Z,103.78
2023-01-08T09:17:54.426Z,113.63
2023-01-08T09:20:22.895Z,116.82
2023-01-08T09:22:50.952Z,118.50
2023-01-08T09:25:19.267Z,120.88
2023-01-08T09:27:47.136Z,119.38
2023-01-08T09:30:16.645Z,114.03
2023-01-08T09:32:44.465Z,113.53
2023-01-08T09:35:12.469Z,115.15
2023-01-08T09:37:40.207Z,118.35
2023-01-08T09:40:11.311Z,119.82
2023-01-08T09:42:39.632Z,120.20
2023-01-08T09:45:17.131Z,119.68
2023-01-08T09:47:46.484Z,121.97
2023-01-08T09:50:15.095Z,127.30
2023-01-08T09:52:43.887Z,132.30
2023-01-08T09:55:14.397Z,158.75
2023-01-08T09:57:42.914Z,163.45
2023-01-08T10:00:15.886Z,203.65
2023-01-08T10:02:44.317Z,192.02
2023-01-08T10:05:16.382Z,188.52
2023-01-08T10:07:45.267Z,179.70
2023-01-08T10:10:20.454Z,169.63
2023-01-08T10:12:50.651Z,191.57
2023-01-08T10:15:21.466Z,273.60
2023-01-08T10:17:55.782Z,293.42
2023-01-08T10:20:26.809Z,173.60
2023-01-08T10:22:56.442Z,170.32
2023-01-08T10:25:27.650Z,174.10
2023-01-08T10:27:59.894Z,145.82
2023-01-08T10:30:35.645Z,135.40
2023-01-08T10:33:05.918Z,90.30
2023-01-08T10:35:39.004Z,63.75
2023-01-08T10:38:07.507Z,47.53
2023-01-08T10:40:39.463Z,112.68
2023-01-08T10:43:13.017Z,106.85
2023-01-08T10:45:41.994Z,70.30
2023-01-08T10:48:18.667Z,49.17
2023-01-08T10:50:48.453Z,48.55
2023-01-08T10:53:24.736Z,43.47
2023-01-08T10:55:58.944Z,37.83
2023-01-08T10:58:28.753Z,42.22
2023-01-08T11:01:09.359Z,53.80
2023-01-08T11:03:37.546Z,63.28
2023-01-08T11:06:14.386Z,81.20
2023-01-08T11:08:51.720Z,71.53
2023-01-08T11:11:20.648Z,69.63
2023-01-08T11:13:57.454Z,39.38
2023-01-08T11:16:32.580Z,35.55
2023-01-08T11:19:00.514Z,37.55
2023-01-08T11:21:32.548Z,30.55
2023-01-08T11:24:17.946Z,29.40
2023-01-08T11:26:51.051Z,30.08
2023-01-08T11:29:23.717Z,37.72
2023-01-08T11:31:57.191Z,49.97
2023-01-08T11:34:32.652Z,53.25
2023-01-08T11:37:10.628Z,51.60
2023-01-08T11:39:39.458Z,53.13
2023-01-08T11:42:19.097Z,57.63
2023-01-08T11:45:01.490Z,54.75
2023-01-08T11:47:43.987Z,57.70
2023-01-08T11:50:19.987Z,53.13
2023-01-08T11:53:04.126Z,52.75
2023-01-08T11:55:45.222Z,50.72
2023-01-08T11:58:33.137Z,44.35
2023-01-08T12:01:29.855Z,45.35
2023-01-08T12:04:17.504Z,46.08
2023-01-08T12:06:53.642Z,44.78
2023-01-08T12:09:35.528Z,44.92
2023-01-08T12:12:15.004Z,48.58
2023-01-08T12:14:59.051Z,48.63
2023-01-08T12:17:42.660Z,47.75
2023-01-08T12:20:21.865Z,44.85
2023-01-08T12:23:00.611Z,44.55
2023-01-08T12:25:54.577Z,44.45
2023-01-08T12:28:43.609Z,45.90
2023-01-08T12:31:30.433Z,47.17
2023-01-08T12:34:05.344Z,42.53
2023-01-08T12:36:38.852Z,44.95
2023-01-08T12:39:13.276Z,47.42
2023-01-08T12:41:45.115Z,53.83
2023-01-08T12:44:17.337Z,40.30
2023-01-08T12:46:46.990Z,53.17
2023-01-08T12:49:22.261Z,44.60
2023-01-08T12:51:57.297Z,42.10
2023-01-08T12:54:36.730Z,44.97
2023-01-08T12:57:12.977Z,43.22
2023-01-08T12:59:47.201Z,37.13
2023-01-08T13:02:28.256Z,48.42
2023-01-08T13:04:56.066Z,42.28
2023-01-08T13:07:30.399Z,40.67
2023-01-08T13:10:02.667Z,45.33
2023-01-08T13:12:36.722Z,43.67
2023-01-08T13:15:05.956Z,46.15
2023-01-08T13:17:34.808Z,41.65
2023-01-08T13:20:05.201Z,44.28
2023-01-08T13:22:34.994Z,46.95
2023-01-08T13:25:27.167Z,44.13
2023-01-08T13:27:57.158Z,46.83
2023-01-08T13:30:38.644Z,46.10
2023-01-08T13:33:25.670Z,46.50
2023-01-08T13:35:53.661Z,43.55
2023-01-08T13:38:22.545Z,46.95
2023-01-08T13:40:56.267Z,46.63
2023-01-08T13:43:30.728Z,48.10
2023-01-08T13:46:15.509Z,42.40
2023-01-08T13:48:51.660Z,41.50
2023-01-08T13:51:30.682Z,46.35
2023-01-08T13:54:03.936Z,44.97
2023-01-08T13:56:32.409Z,44.95
2023-01-08T13:59:01.955Z,42.58
2023-01-08T14:01:29.928Z,49.05
2023-01-08T14:03:58.236Z,51.80
2023-01-08T14:06:28.529Z,47.95
2023-01-08T14:08:58.383Z,57.55
2023-01-08T14:11:30.556Z,87.90
2023-01-08T14:13:59.052Z,85.50
2023-01-08T14:16:28.442Z,88.63
2023-01-08T14:19:01.970Z,67.82
2023-01-08T14:21:30.389Z,64.88
2023-01-08T14:23:58.667Z,60.30
2023-01-08T14:26:31.768Z,59.60
2023-01-08T14:29:01.511Z,53.90
2023-01-08T14:31:30.875Z,58.30
2023-01-08T14:34:00.880Z,55.80
2023-01-08T14:36:28.895Z,59.78
2023-01-08T14:38:57.088Z,57.25
2023-01-08T14:41:51.175Z,64.53
2023-01-08T14:44:25.986Z,60.45
2023-01-08T14:46:58.662Z,67.72
2023-01-08T14:49:30.227Z,75.00
2023-01-08T14:52:00.226Z,72.18
2023-01-08T14:54:32.512Z,92.13
2023-01-08T14:57:01.628Z,89.43
2023-01-08T14:59:33.647Z,89.95
2023-01-08T15:02:05.204Z,102.10
2023-01-08T15:04:33.465Z,108.85
2023-01-08T15:07:09.646Z,104.68
2023-01-08T15:09:37.856Z,107.15
2023-01-08T15:12:10.075Z,98.57
2023-01-08T15:14:38.743Z,100.82
2023-01-08T15:17:12.153Z,98.35
2023-01-08T15:19:42.963Z,83.22
2023-01-08T15:22:18.026Z,79.57
2023-01-08T15:24:55.723Z,87.25
2023-01-08T15:27:23.478Z,80.90
2023-01-08T15:29:58.944Z,74.35
2023-01-08T15:32:32.428Z,74.72
2023-01-08T15:35:00.597Z,84.35
2023-01-08T15:37:30.268Z,93.00
2023-01-08T15:39:58.497Z,98.57
2023-01-08T15:42:48.557Z,104.70
2023-01-08T15:45:19.906Z,109.35
2023-01-08T15:47:49.551Z,114.85
2023-01-08T15:50:17.658Z,142.10
2023-01-08T15:52:45.385Z,168.25
2023-01-08T15:55:17.902Z,159.38
2023-01-08T15:57:45.837Z,136.52
2023-01-08T16:00:15.460Z,167.90
2023-01-08T16:02:46.539Z,190.65
2023-01-08T16:05:17.783Z,219.18
2023-01-08T16:07:46.072Z,191.80
2023-01-08T16:10:14.571Z,204.98
2023-01-08T16:12:43.472Z,178.23
2023-01-08T16:15:12.728Z,177.45
2023-01-08T16:17:41.987Z,225.35
2023-01-08T16:20:12.606Z,271.20
2023-01-08T16:22:42.000Z,177.90
2023-01-08T16:25:10.814Z,184.05
2023-01-08T16:27:40.291Z,190.68
2023-01-08T16:30:11.627Z,175.95
2023-01-08T16:32:39.389Z,187.70
2023-01-08T16:35:08.223Z,212.68
2023-01-08T16:37:36.210Z,181.88
2023-01-08T16:40:06.731Z,175.00
2023-01-08T16:42:34.592Z,163.85
2023-01-08T16:45:02.787Z,186.80
2023-01-08T16:47:30.653Z,169.90
2023-01-08T16:49:58.616Z,152.52
2023-01-08T16:52:26.464Z,177.55
2023-01-08T16:54:54.476Z,164.00
2023-01-08T16:57:23.517Z,152.82
2023-01-08T16:59:53.122Z,153.85
2023-01-08T17:02:21.671Z,172.80
2023-01-08T17:04:49.697Z,159.10
2023-01-08T17:07:17.539Z,101.13
2023-01-08T17:09:45.522Z,83.28
2023-01-08T17:12:22.187Z,104.53
2023-01-08T17:14:52.481Z,116.93
2023-01-08T17:17:20.219Z,107.80
2023-01-08T17:19:48.274Z,110.10
2023-01-08T17:22:16.070Z,93.80
2023-01-08T17:24:44.080Z,102.03
2023-01-08T17:27:12.332Z,96.07
2023-01-08T17:29:40.478Z,179.38
2023-01-08T17:32:10.018Z,153.05
2023-01-08T17:34:38.197Z,195.52
2023-01-08T17:37:06.032Z,224.88
2023-01-08T17:39:34.269Z,236.68
2023-01-08T17:42:19.584Z,222.00
2023-01-08T17:44:47.758Z,231.98
2023-01-08T17:47:17.158Z,207.98
2023-01-08T17:49:45.370Z,207.70
2023-01-08T17:52:14.184Z,202.70
2023-01-08T17:54:42.138Z,192.73
2023-01-08T17:57:10.030Z,190.13
2023-01-08T17:59:38.517Z,176.35
2023-01-08T18:02:06.396Z,191.77
2023-01-08T18:04:36.042Z,194.02
2023-01-08T18:07:04.389Z,213.63
2023-01-08T18:09:32.938Z,219.35
2023-01-08T18:12:00.761Z,199.40
2023-01-08T18:14:29.131Z,196.43
2023-01-08T18:16:56.978Z,201.90
2023-01-08T18:19:26.173Z,199.88
2023-01-08T18:21:55.886Z,191.55
2023-01-08T18:24:23.868Z,205.13
2023-01-08T18:26:51.679Z,192.98
2023-01-08T18:29:19.766Z,164.25
2023-01-08T18:31:47.536Z,185.35
2023-01-08T18:34:15.828Z,173.40
2023-01-08T18:36:43.905Z,189.85
2023-01-08T18:39:15.607Z,170.07
2023-01-08T18:42:01.301Z,200.70
2023-01-08T18:44:29.646Z,192.10
2023-01-08T18:46:57.340Z,199.27
2023-01-08T18:49:27.461Z,188.82
2023-01-08T18:51:55.481Z,197.73
2023-01-08T18:54:24.807Z,192.60
2023-01-08T18:56:52.605Z,189.85
2023-01-08T18:59:20.726Z,210.95
2023-01-08T19:01:48.643Z,202.85
2023-01-08T19:04:19.018Z,212.15
2023-01-08T19:06:47.141Z,195.77
2023-01-08T19:09:15.919Z,195.07
2023-01-08T19:11:45.109Z,208.90
2023-01-08T19:14:14.183Z,227.55
2023-01-08T19:16:43.589Z,366.70
2023-01-08T19:19:11.537Z,224.55
2023-01-08T19:21:39.437Z,256.35
2023-01-08T19:24:08.291Z,224.95
2023-01-08T19:26:36.243Z,255.18
2023-01-08T19:29:05.717Z,248.93
2023-01-08T19:31:33.546Z,230.00
2023-01-08T19:34:02.293Z,222.10
2023-01-08T19:36:30.478Z,227.43
2023-01-08T19:38:58.488Z,254.00
2023-01-08T19:41:43.738Z,253.40
2023-01-08T19:44:13.436Z,246.65
2023-01-08T19:46:41.255Z,245.13
2023-01-08T19:49:09.329Z,203.23
2023-01-08T19:51:37.353Z,217.48
2023-01-08T19:54:05.365Z,199.82
2023-01-08T19:56:33.118Z,196.60
2023-01-08T19:59:01.440Z,196.73
2023-01-08T20:01:30.687Z,200.30
2023-01-08T20:03:59.049Z,202.25
2023-01-08T20:06:28.060Z,196.65
2023-01-08T20:08:59.068Z,209.52
2023-01-08T20:11:27.975Z,219.60
2023-01-08T20:14:00.354Z,211.77
2023-01-08T20:16:29.620Z,206.93
2023-01-08T20:19:02.012Z,208.00
2023-01-08T20:21:30.101Z,185.82
2023-01-08T20:24:01.850Z,164.05
2023-01-08T20:26:31.709Z,165.00
2023-01-08T20:29:00.093Z,160.18
2023-01-08T20:31:31.128Z,162.63
2023-01-08T20:34:02.407Z,132.18
2023-01-08T20:36:33.149Z,128.65
2023-01-08T20:39:03.621Z,125.85
2023-01-08T20:41:31.450Z,138.55
2023-01-08T20:43:59.449Z,138.68
2023-01-08T20:46:29.466Z,137.75
2023-01-08T20:49:02.798Z,139.57
2023-01-08T20:51:31.036Z,142.35
2023-01-08T20:54:00.988Z,149.80
2023-01-08T20:56:29.109Z,169.90
2023-01-08T20:58:58.095Z,165.60
2023-01-08T21:01:31.217Z,172.32
2023-01-08T21:04:02.124Z,181.90
2023-01-08T21:06:31.997Z,179.55
2023-01-08T21:09:02.078Z,181.75
2023-01-08T21:11:30.930Z,161.15
2023-01-08T21:13:59.496Z,186.38
2023-01-08T21:16:29.294Z,151.50
2023-01-08T21:18:58.428Z,155.95
2023-01-08T21:21:29.746Z,161.88
2023-01-08T21:23:57.897Z,139.05
2023-01-08T21:26:26.159Z,128.63
2023-01-08T21:28:54.637Z,112.20
2023-01-08T21:31:26.621Z,102.97
2023-01-08T21:36:26.297Z,90.70
2023-01-08T21:38:57.594Z,96.68
2023-01-08T21:41:45.221Z,103.53
2023-01-08T21:44:33.059Z,97.38
2023-01-08T21:47:02.766Z,98.80
2023-01-08T21:49:31.711Z,100.97
2023-01-08T21:52:17.350Z,103.60
2023-01-08T21:54:47.079Z,100.90
2023-01-08T21:57:14.854Z,143.98
2023-01-08T21:59:43.214Z,142.70
2023-01-08T22:02:15.291Z,130.63
2023-01-08T22:07:11.204Z,107.72
2023-01-08T22:09:39.623Z,104.13
2023-01-08T22:12:09.417Z,103.90
2023-01-08T22:14:37.823Z,99.55
2023-01-08T22:17:08.370Z,96.18
2023-01-08T22:19:38.217Z,84.57
2023-01-08T22:22:07.644Z,92.45
2023-01-08T22:24:37.751Z,83.87
2023-01-08T22:27:05.582Z,85.32
2023-01-08T22:29:35.005Z,89.28
2023-01-08T22:32:02.794Z,83.82
2023-01-08T22:34:32.075Z,83.25
2023-01-08T22:36:59.924Z,93.78
2023-01-08T22:39:28.196Z,89.00
2023-01-08T22:41:56.090Z,91.68
2023-01-08T22:44:24.284Z,87.38
2023-01-08T22:46:53.452Z,88.75
2023-01-08T22:49:21.528Z,102.53
2023-01-08T22:51:49.213Z,99.88
2023-01-08T22:54:18.059Z,97.80
2023-01-08T22:56:46.052Z,92.03
2023-01-08T22:59:14.036Z,96.85
2023-01-08T23:01:41.871Z,96.18
2023-01-08T23:04:11.749Z,97.00
2023-01-08T23:06:39.476Z,94.80
2023-01-08T23:09:07.669Z,94.45
2023-01-08T23:11:35.547Z,92.45
2023-01-08T23:14:03.528Z,90.40
2023-01-08T23:16:31.385Z,98.10
2023-01-08T23:18:59.605Z,94.70
2023-01-08T23:21:29.192Z,89.15
2023-01-08T23:23:57.669Z,83.35
2023-01-08T23:26:27.856Z,80.07
2023-01-08T23:28:57.145Z,82.03
2023-01-08T23:31:26.930Z,86.63
2023-01-08T23:33:55.652Z,81.85
2023-01-08T23:36:23.650Z,82.78
2023-01-08T23:38:55.242Z,83.07
2023-01-08T23:41:32.020Z,67.93
2023-01-08T23:44:03.398Z,84.53
2023-01-08T23:46:31.423Z,168.48
2023-01-08T23:48:59.539Z,161.32
2023-01-08T23:51:27.670Z,158.45
2023-01-08T23:53:57.154Z,218.23
2023-01-08T23:56:24.871Z,141.70
2023-01-08T23:58:53.237Z,122.80
